sensor_id;sensor_type;location;lat;lon;timestamp;temperature;humidity
22364;DHT22;11349;53.412;-1.328;2022-08-21T00:00:16;19.10;99.90
22364;DHT22;11349;53.412;-1.328;2022-08-21T00:02:49;18.90;99.90
22364;DHT22;11349;53.412;-1.328;2022-08-21T00:05:16;19.00;99.90
22364;DHT22;11349;53.412;-1.328;2022-08-21T00:07:42;18.70;99.90
22364;DHT22;11349;53.412;-1.328;2022-08-21T00:10:08;19.00;99.90
22364;DHT22;11349;53.412;-1.328;2022-08-21T00:12:35;19.20;99.90
22364;DHT22;11349;53.412;-1.328;2022-08-21T00:15:01;19.40;99.90
22364;DHT22;11349;53.412;-1.328;2022-08-21T00:17:26;18.80;99.90
22364;DHT22;11349;53.412;-1.328;2022-08-21T00:19:52;18.50;99.90
22364;DHT22;11349;53.412;-1.328;2022-08-21T00:22:18;18.50;99.90
22364;DHT22;11349;53.412;-1.328;2022-08-21T00:24:44;18.60;99.90
22364;DHT22;11349;53.412;-1.328;2022-08-21T00:27:10;18.90;99.90
22364;DHT22;11349;53.412;-1.328;2022-08-21T00:29:36;18.50;99.90
22364;DHT22;11349;53.412;-1.328;2022-08-21T00:32:01;18.40;99.90
22364;DHT22;11349;53.412;-1.328;2022-08-21T00:34:27;18.40;99.90
22364;DHT22;11349;53.412;-1.328;2022-08-21T00:36:53;18.20;99.90
22364;DHT22;11349;53.412;-1.328;2022-08-21T00:39:19;18.40;99.90
22364;DHT22;11349;53.412;-1.328;2022-08-21T00:41:45;18.20;99.90
22364;DHT22;11349;53.412;-1.328;2022-08-21T00:44:13;18.00;99.90
22364;DHT22;11349;53.412;-1.328;2022-08-21T00:46:40;18.10;99.90
22364;DHT22;11349;53.412;-1.328;2022-08-21T00:49:08;18.20;99.90
22364;DHT22;11349;53.412;-1.328;2022-08-21T00:51:53;18.50;99.90
22364;DHT22;11349;53.412;-1.328;2022-08-21T00:54:24;18.70;99.90
22364;DHT22;11349;53.412;-1.328;2022-08-21T00:56:54;18.80;99.90
22364;DHT22;11349;53.412;-1.328;2022-08-21T00:59:21;19.20;99.90
22364;DHT22;11349;53.412;-1.328;2022-08-21T01:01:49;19.00;99.90
22364;DHT22;11349;53.412;-1.328;2022-08-21T01:04:16;18.80;99.90
22364;DHT22;11349;53.412;-1.328;2022-08-21T01:06:43;18.80;99.90
22364;DHT22;11349;53.412;-1.328;2022-08-21T01:09:09;18.80;99.90
22364;DHT22;11349;53.412;-1.328;2022-08-21T01:11:35;18.80;99.90
22364;DHT22;11349;53.412;-1.328;2022-08-21T01:14:02;18.70;99.90
22364;DHT22;11349;53.412;-1.328;2022-08-21T01:16:28;18.30;99.90
22364;DHT22;11349;53.412;-1.328;2022-08-21T01:18:55;18.10;99.90
22364;DHT22;11349;53.412;-1.328;2022-08-21T01:21:24;17.90;99.90
22364;DHT22;11349;53.412;-1.328;2022-08-21T01:23:53;17.80;99.90
22364;DHT22;11349;53.412;-1.328;2022-08-21T01:26:22;17.60;99.90
22364;DHT22;11349;53.412;-1.328;2022-08-21T01:31:42;17.40;99.90
22364;DHT22;11349;53.412;-1.328;2022-08-21T01:34:09;17.30;1.00
22364;DHT22;11349;53.412;-1.328;2022-08-21T01:36:35;17.20;1.00
22364;DHT22;11349;53.412;-1.328;2022-08-21T01:39:03;17.30;99.90
22364;DHT22;11349;53.412;-1.328;2022-08-21T01:41:29;17.40;99.90
22364;DHT22;11349;53.412;-1.328;2022-08-21T01:43:56;17.20;1.00
22364;DHT22;11349;53.412;-1.328;2022-08-21T01:46:22;17.10;1.00
22364;DHT22;11349;53.412;-1.328;2022-08-21T01:48:48;17.20;99.90
22364;DHT22;11349;53.412;-1.328;2022-08-21T01:51:14;17.40;99.90
22364;DHT22;11349;53.412;-1.328;2022-08-21T01:53:40;17.20;1.00
22364;DHT22;11349;53.412;-1.328;2022-08-21T01:56:08;17.30;99.90
22364;DHT22;11349;53.412;-1.328;2022-08-21T01:58:35;17.10;1.00
22364;DHT22;11349;53.412;-1.328;2022-08-21T02:01:02;16.90;1.00
22364;DHT22;11349;53.412;-1.328;2022-08-21T02:03:29;16.70;1.00
22364;DHT22;11349;53.412;-1.328;2022-08-21T02:05:56;16.70;1.00
22364;DHT22;11349;53.412;-1.328;2022-08-21T02:08:22;16.50;1.00
22364;DHT22;11349;53.412;-1.328;2022-08-21T02:10:50;16.50;1.00
22364;DHT22;11349;53.412;-1.328;2022-08-21T02:13:17;16.60;1.00
22364;DHT22;11349;53.412;-1.328;2022-08-21T02:15:44;16.70;1.00
22364;DHT22;11349;53.412;-1.328;2022-08-21T02:18:10;16.70;1.00
22364;DHT22;11349;53.412;-1.328;2022-08-21T02:20:40;16.70;1.00
22364;DHT22;11349;53.412;-1.328;2022-08-21T02:23:09;16.70;1.00
22364;DHT22;11349;53.412;-1.328;2022-08-21T02:25:37;16.80;1.00
22364;DHT22;11349;53.412;-1.328;2022-08-21T02:28:09;16.70;1.00
22364;DHT22;11349;53.412;-1.328;2022-08-21T02:30:40;17.00;99.90
22364;DHT22;11349;53.412;-1.328;2022-08-21T02:33:06;17.00;99.90
22364;DHT22;11349;53.412;-1.328;2022-08-21T02:35:33;16.80;1.00
22364;DHT22;11349;53.412;-1.328;2022-08-21T02:38:02;16.60;1.00
22364;DHT22;11349;53.412;-1.328;2022-08-21T02:40:32;16.30;1.00
22364;DHT22;11349;53.412;-1.328;2022-08-21T02:43:00;16.30;1.00
22364;DHT22;11349;53.412;-1.328;2022-08-21T02:45:27;16.40;1.00
22364;DHT22;11349;53.412;-1.328;2022-08-21T02:48:00;16.40;1.00
22364;DHT22;11349;53.412;-1.328;2022-08-21T02:50:32;16.40;1.00
22364;DHT22;11349;53.412;-1.328;2022-08-21T02:52:59;16.20;1.00
22364;DHT22;11349;53.412;-1.328;2022-08-21T02:55:28;16.10;1.00
22364;DHT22;11349;53.412;-1.328;2022-08-21T02:57:56;16.10;1.00
22364;DHT22;11349;53.412;-1.328;2022-08-21T03:00:25;16.10;1.00
22364;DHT22;11349;53.412;-1.328;2022-08-21T03:02:52;16.10;1.00
22364;DHT22;11349;53.412;-1.328;2022-08-21T03:05:19;16.00;1.00
22364;DHT22;11349;53.412;-1.328;2022-08-21T03:07:46;16.10;1.00
22364;DHT22;11349;53.412;-1.328;2022-08-21T03:10:13;16.00;1.00
22364;DHT22;11349;53.412;-1.328;2022-08-21T03:12:40;15.80;6.70
22364;DHT22;11349;53.412;-1.328;2022-08-21T03:15:09;15.70;21.90
22364;DHT22;11349;53.412;-1.328;2022-08-21T03:17:35;15.70;26.70
22364;DHT22;11349;53.412;-1.328;2022-08-21T03:20:01;15.90;1.00
22364;DHT22;11349;53.412;-1.328;2022-08-21T03:22:28;16.10;1.00
22364;DHT22;11349;53.412;-1.328;2022-08-21T03:24:54;16.10;1.00
22364;DHT22;11349;53.412;-1.328;2022-08-21T03:27:20;16.20;1.00
22364;DHT22;11349;53.412;-1.328;2022-08-21T03:29:46;16.30;1.00
22364;DHT22;11349;53.412;-1.328;2022-08-21T03:32:12;16.40;1.00
22364;DHT22;11349;53.412;-1.328;2022-08-21T03:34:38;16.30;1.00
22364;DHT22;11349;53.412;-1.328;2022-08-21T03:37:06;16.30;1.00
22364;DHT22;11349;53.412;-1.328;2022-08-21T03:39:33;16.30;1.00
22364;DHT22;11349;53.412;-1.328;2022-08-21T03:41:59;16.20;1.00
22364;DHT22;11349;53.412;-1.328;2022-08-21T03:44:29;16.10;1.00
22364;DHT22;11349;53.412;-1.328;2022-08-21T03:46:57;16.20;1.00
22364;DHT22;11349;53.412;-1.328;2022-08-21T03:49:24;16.50;1.00
22364;DHT22;11349;53.412;-1.328;2022-08-21T03:51:50;16.50;1.00
22364;DHT22;11349;53.412;-1.328;2022-08-21T03:54:16;16.70;1.00
22364;DHT22;11349;53.412;-1.328;2022-08-21T03:56:41;16.80;1.00
22364;DHT22;11349;53.412;-1.328;2022-08-21T03:59:08;16.60;1.00
22364;DHT22;11349;53.412;-1.328;2022-08-21T04:01:34;16.60;1.00
22364;DHT22;11349;53.412;-1.328;2022-08-21T04:04:00;16.60;1.00
22364;DHT22;11349;53.412;-1.328;2022-08-21T04:06:26;16.60;1.00
22364;DHT22;11349;53.412;-1.328;2022-08-21T04:08:52;16.50;1.00
22364;DHT22;11349;53.412;-1.328;2022-08-21T04:11:19;16.50;1.00
22364;DHT22;11349;53.412;-1.328;2022-08-21T04:13:46;16.60;1.00
22364;DHT22;11349;53.412;-1.328;2022-08-21T04:16:12;16.80;1.00
22364;DHT22;11349;53.412;-1.328;2022-08-21T04:18:39;16.70;1.00
22364;DHT22;11349;53.412;-1.328;2022-08-21T04:21:05;16.60;46.90
22364;DHT22;11349;53.412;-1.328;2022-08-21T04:23:33;16.40;99.90
22364;DHT22;11349;53.412;-1.328;2022-08-21T04:25:59;16.30;99.90
22364;DHT22;11349;53.412;-1.328;2022-08-21T04:28:26;16.30;19.40
22364;DHT22;11349;53.412;-1.328;2022-08-21T04:30:53;16.40;1.00
22364;DHT22;11349;53.412;-1.328;2022-08-21T04:33:20;16.60;1.00
22364;DHT22;11349;53.412;-1.328;2022-08-21T04:35:46;16.50;12.20
22364;DHT22;11349;53.412;-1.328;2022-08-21T04:38:12;16.30;99.90
22364;DHT22;11349;53.412;-1.328;2022-08-21T04:40:38;16.20;99.90
22364;DHT22;11349;53.412;-1.328;2022-08-21T04:43:06;16.10;99.90
22364;DHT22;11349;53.412;-1.328;2022-08-21T04:45:35;16.10;99.90
22364;DHT22;11349;53.412;-1.328;2022-08-21T04:48:04;16.20;62.40
22364;DHT22;11349;53.412;-1.328;2022-08-21T04:53:31;16.20;99.90
22364;DHT22;11349;53.412;-1.328;2022-08-21T04:56:11;16.20;93.00
22364;DHT22;11349;53.412;-1.328;2022-08-21T04:58:39;16.10;99.90
22364;DHT22;11349;53.412;-1.328;2022-08-21T05:01:12;15.90;99.90
22364;DHT22;11349;53.412;-1.328;2022-08-21T05:03:38;15.90;99.90
22364;DHT22;11349;53.412;-1.328;2022-08-21T05:06:09;16.00;99.90
22364;DHT22;11349;53.412;-1.328;2022-08-21T05:08:37;16.00;29.70
22364;DHT22;11349;53.412;-1.328;2022-08-21T05:11:04;16.10;37.20
22364;DHT22;11349;53.412;-1.328;2022-08-21T05:13:30;16.20;99.90
22364;DHT22;11349;53.412;-1.328;2022-08-21T05:15:57;16.30;89.00
22364;DHT22;11349;53.412;-1.328;2022-08-21T05:18:24;16.20;57.60
22364;DHT22;11349;53.412;-1.328;2022-08-21T05:20:50;16.30;99.90
22364;DHT22;11349;53.412;-1.328;2022-08-21T05:23:16;16.40;47.90
22364;DHT22;11349;53.412;-1.328;2022-08-21T05:25:43;16.40;1.00
22364;DHT22;11349;53.412;-1.328;2022-08-21T05:28:09;16.60;1.00
22364;DHT22;11349;53.412;-1.328;2022-08-21T05:30:37;16.70;1.00
22364;DHT22;11349;53.412;-1.328;2022-08-21T05:33:04;16.70;1.00
22364;DHT22;11349;53.412;-1.328;2022-08-21T05:35:31;16.60;27.30
22364;DHT22;11349;53.412;-1.328;2022-08-21T05:37:59;16.50;29.80
22364;DHT22;11349;53.412;-1.328;2022-08-21T05:40:26;16.50;99.90
22364;DHT22;11349;53.412;-1.328;2022-08-21T05:42:54;16.40;99.90
22364;DHT22;11349;53.412;-1.328;2022-08-21T05:45:21;16.40;9.00
22364;DHT22;11349;53.412;-1.328;2022-08-21T05:47:47;16.50;1.00
22364;DHT22;11349;53.412;-1.328;2022-08-21T05:50:13;16.70;1.00
22364;DHT22;11349;53.412;-1.328;2022-08-21T05:52:39;16.70;23.30
22364;DHT22;11349;53.412;-1.328;2022-08-21T05:55:05;16.70;1.00
22364;DHT22;11349;53.412;-1.328;2022-08-21T05:57:31;16.70;18.60
22364;DHT22;11349;53.412;-1.328;2022-08-21T05:59:56;16.70;3.80
22364;DHT22;11349;53.412;-1.328;2022-08-21T06:02:22;16.80;1.00
22364;DHT22;11349;53.412;-1.328;2022-08-21T06:04:49;16.80;1.00
22364;DHT22;11349;53.412;-1.328;2022-08-21T06:07:15;16.90;47.20
22364;DHT22;11349;53.412;-1.328;2022-08-21T06:09:41;16.80;16.20
22364;DHT22;11349;53.412;-1.328;2022-08-21T06:12:09;16.80;99.90
22364;DHT22;11349;53.412;-1.328;2022-08-21T06:14:36;16.70;99.90
22364;DHT22;11349;53.412;-1.328;2022-08-21T06:17:07;16.80;1.00
22364;DHT22;11349;53.412;-1.328;2022-08-21T06:19:34;17.00;71.10
22364;DHT22;11349;53.412;-1.328;2022-08-21T06:22:00;16.90;99.90
22364;DHT22;11349;53.412;-1.328;2022-08-21T06:24:26;16.80;99.90
22364;DHT22;11349;53.412;-1.328;2022-08-21T06:26:52;16.80;52.70
22364;DHT22;11349;53.412;-1.328;2022-08-21T06:29:19;16.80;99.90
22364;DHT22;11349;53.412;-1.328;2022-08-21T06:31:46;16.80;99.90
22364;DHT22;11349;53.412;-1.328;2022-08-21T06:34:13;16.80;99.90
22364;DHT22;11349;53.412;-1.328;2022-08-21T06:36:40;16.80;99.90
22364;DHT22;11349;53.412;-1.328;2022-08-21T06:39:05;16.80;99.90
22364;DHT22;11349;53.412;-1.328;2022-08-21T06:41:32;16.80;99.90
22364;DHT22;11349;53.412;-1.328;2022-08-21T06:43:58;16.90;99.90
22364;DHT22;11349;53.412;-1.328;2022-08-21T06:46:26;17.00;99.90
22364;DHT22;11349;53.412;-1.328;2022-08-21T06:48:52;17.10;52.80
22364;DHT22;11349;53.412;-1.328;2022-08-21T06:51:18;17.10;32.60
22364;DHT22;11349;53.412;-1.328;2022-08-21T06:53:44;17.30;1.00
22364;DHT22;11349;53.412;-1.328;2022-08-21T06:56:10;17.40;1.00
22364;DHT22;11349;53.412;-1.328;2022-08-21T06:58:36;17.60;1.00
22364;DHT22;11349;53.412;-1.328;2022-08-21T07:01:03;18.10;1.00
22364;DHT22;11349;53.412;-1.328;2022-08-21T07:03:32;18.20;1.00
22364;DHT22;11349;53.412;-1.328;2022-08-21T07:05:59;18.30;1.00
22364;DHT22;11349;53.412;-1.328;2022-08-21T07:08:25;18.20;1.00
22364;DHT22;11349;53.412;-1.328;2022-08-21T07:10:53;18.20;1.00
22364;DHT22;11349;53.412;-1.328;2022-08-21T07:13:20;18.10;1.00
22364;DHT22;11349;53.412;-1.328;2022-08-21T07:15:46;18.10;1.00
22364;DHT22;11349;53.412;-1.328;2022-08-21T07:18:12;18.30;1.00
22364;DHT22;11349;53.412;-1.328;2022-08-21T07:20:39;18.50;1.00
22364;DHT22;11349;53.412;-1.328;2022-08-21T07:23:10;19.00;1.00
22364;DHT22;11349;53.412;-1.328;2022-08-21T07:25:37;19.50;99.90
22364;DHT22;11349;53.412;-1.328;2022-08-21T07:28:02;20.00;99.90
22364;DHT22;11349;53.412;-1.328;2022-08-21T07:30:29;20.50;99.90
22364;DHT22;11349;53.412;-1.328;2022-08-21T07:32:55;20.70;99.90
22364;DHT22;11349;53.412;-1.328;2022-08-21T07:35:22;21.00;99.90
22364;DHT22;11349;53.412;-1.328;2022-08-21T07:37:48;21.10;99.90
22364;DHT22;11349;53.412;-1.328;2022-08-21T07:40:16;21.50;99.90
22364;DHT22;11349;53.412;-1.328;2022-08-21T07:42:45;21.80;99.90
22364;DHT22;11349;53.412;-1.328;2022-08-21T07:45:12;22.00;99.90
22364;DHT22;11349;53.412;-1.328;2022-08-21T07:47:38;22.10;99.90
22364;DHT22;11349;53.412;-1.328;2022-08-21T07:50:05;22.10;99.90
22364;DHT22;11349;53.412;-1.328;2022-08-21T07:52:32;22.50;99.90
22364;DHT22;11349;53.412;-1.328;2022-08-21T07:54:59;22.90;99.90
22364;DHT22;11349;53.412;-1.328;2022-08-21T07:57:25;23.10;99.90
22364;DHT22;11349;53.412;-1.328;2022-08-21T07:59:51;23.20;99.90
22364;DHT22;11349;53.412;-1.328;2022-08-21T08:02:27;23.20;99.90
22364;DHT22;11349;53.412;-1.328;2022-08-21T08:04:54;23.50;99.90
22364;DHT22;11349;53.412;-1.328;2022-08-21T08:07:20;24.00;99.90
22364;DHT22;11349;53.412;-1.328;2022-08-21T08:09:46;24.40;99.90
22364;DHT22;11349;53.412;-1.328;2022-08-21T08:12:12;24.60;99.90
22364;DHT22;11349;53.412;-1.328;2022-08-21T08:14:38;25.00;99.90
22364;DHT22;11349;53.412;-1.328;2022-08-21T08:17:03;25.20;99.90
22364;DHT22;11349;53.412;-1.328;2022-08-21T08:19:29;25.40;99.90
22364;DHT22;11349;53.412;-1.328;2022-08-21T08:21:56;25.50;99.90
22364;DHT22;11349;53.412;-1.328;2022-08-21T08:24:21;25.60;99.90
22364;DHT22;11349;53.412;-1.328;2022-08-21T08:26:47;25.60;99.90
22364;DHT22;11349;53.412;-1.328;2022-08-21T08:29:13;26.00;99.90
22364;DHT22;11349;53.412;-1.328;2022-08-21T08:31:39;26.30;99.90
22364;DHT22;11349;53.412;-1.328;2022-08-21T08:34:05;26.60;99.90
22364;DHT22;11349;53.412;-1.328;2022-08-21T08:36:35;26.50;99.90
22364;DHT22;11349;53.412;-1.328;2022-08-21T08:39:03;26.40;99.90
22364;DHT22;11349;53.412;-1.328;2022-08-21T08:41:30;26.50;99.90
22364;DHT22;11349;53.412;-1.328;2022-08-21T08:44:01;26.20;97.60
22364;DHT22;11349;53.412;-1.328;2022-08-21T08:46:40;26.80;97.40
22364;DHT22;11349;53.412;-1.328;2022-08-21T08:49:36;26.40;99.90
22364;DHT22;11349;53.412;-1.328;2022-08-21T08:52:22;26.50;99.90
22364;DHT22;11349;53.412;-1.328;2022-08-21T08:55:05;26.60;94.50
22364;DHT22;11349;53.412;-1.328;2022-08-21T08:57:32;27.00;93.20
22364;DHT22;11349;53.412;-1.328;2022-08-21T09:00:03;27.10;93.60
22364;DHT22;11349;53.412;-1.328;2022-08-21T09:02:30;27.20;93.40
22364;DHT22;11349;53.412;-1.328;2022-08-21T09:04:56;27.40;94.90
22364;DHT22;11349;53.412;-1.328;2022-08-21T09:10:12;27.20;90.80
22364;DHT22;11349;53.412;-1.328;2022-08-21T09:12:50;27.10;94.70
22364;DHT22;11349;53.412;-1.328;2022-08-21T09:18:08;26.80;96.30
22364;DHT22;11349;53.412;-1.328;2022-08-21T09:20:43;26.70;93.30
22364;DHT22;11349;53.412;-1.328;2022-08-21T09:23:53;26.80;92.70
22364;DHT22;11349;53.412;-1.328;2022-08-21T09:26:24;26.80;92.00
22364;DHT22;11349;53.412;-1.328;2022-08-21T09:28:53;26.60;94.60
22364;DHT22;11349;53.412;-1.328;2022-08-21T09:31:34;26.80;92.70
22364;DHT22;11349;53.412;-1.328;2022-08-21T09:34:09;26.70;90.60
22364;DHT22;11349;53.412;-1.328;2022-08-21T09:36:47;26.60;98.10
22364;DHT22;11349;53.412;-1.328;2022-08-21T09:39:29;26.30;95.80
22364;DHT22;11349;53.412;-1.328;2022-08-21T09:42:02;26.50;98.40
22364;DHT22;11349;53.412;-1.328;2022-08-21T09:44:31;26.00;91.40
22364;DHT22;11349;53.412;-1.328;2022-08-21T09:46:58;26.10;96.70
22364;DHT22;11349;53.412;-1.328;2022-08-21T09:49:37;25.60;94.10
22364;DHT22;11349;53.412;-1.328;2022-08-21T09:52:16;25.70;95.00
22364;DHT22;11349;53.412;-1.328;2022-08-21T09:54:45;25.60;94.10
22364;DHT22;11349;53.412;-1.328;2022-08-21T09:57:12;25.70;95.60
22364;DHT22;11349;53.412;-1.328;2022-08-21T10:02:42;25.50;99.90
22364;DHT22;11349;53.412;-1.328;2022-08-21T10:05:25;25.60;96.10
22364;DHT22;11349;53.412;-1.328;2022-08-21T10:07:51;25.50;95.60
22364;DHT22;11349;53.412;-1.328;2022-08-21T10:10:20;25.50;94.50
22364;DHT22;11349;53.412;-1.328;2022-08-21T10:24:22;25.20;99.90
22364;DHT22;11349;53.412;-1.328;2022-08-21T10:31:55;25.10;99.90
22364;DHT22;11349;53.412;-1.328;2022-08-21T10:47:54;24.90;99.90
22364;DHT22;11349;53.412;-1.328;2022-08-21T10:50:43;24.80;99.90
22364;DHT22;11349;53.412;-1.328;2022-08-21T10:53:29;24.50;99.90
22364;DHT22;11349;53.412;-1.328;2022-08-21T10:58:46;24.50;99.90
22364;DHT22;11349;53.412;-1.328;2022-08-21T11:04:11;24.70;99.90
22364;DHT22;11349;53.412;-1.328;2022-08-21T11:06:41;24.50;99.90
22364;DHT22;11349;53.412;-1.328;2022-08-21T11:09:15;24.70;99.90
22364;DHT22;11349;53.412;-1.328;2022-08-21T11:14:55;24.40;99.20
22364;DHT22;11349;53.412;-1.328;2022-08-21T11:17:28;24.70;99.90
22364;DHT22;11349;53.412;-1.328;2022-08-21T11:20:05;24.50;99.60
22364;DHT22;11349;53.412;-1.328;2022-08-21T11:22:54;24.50;99.90
22364;DHT22;11349;53.412;-1.328;2022-08-21T11:26:31;24.30;99.90
22364;DHT22;11349;53.412;-1.328;2022-08-21T11:29:02;24.30;99.90
22364;DHT22;11349;53.412;-1.328;2022-08-21T11:52:38;24.20;99.90
22364;DHT22;11349;53.412;-1.328;2022-08-21T11:57:29;24.20;99.90
22364;DHT22;11349;53.412;-1.328;2022-08-21T12:00:07;24.20;99.90
22364;DHT22;11349;53.412;-1.328;2022-08-21T12:02:50;24.10;99.90
22364;DHT22;11349;53.412;-1.328;2022-08-21T12:05:27;24.20;99.90
22364;DHT22;11349;53.412;-1.328;2022-08-21T12:10:39;24.40;99.90
22364;DHT22;11349;53.412;-1.328;2022-08-21T12:13:11;24.30;99.90
22364;DHT22;11349;53.412;-1.328;2022-08-21T12:15:39;24.20;99.90
22364;DHT22;11349;53.412;-1.328;2022-08-21T12:18:21;24.20;99.90
22364;DHT22;11349;53.412;-1.328;2022-08-21T12:21:17;24.20;99.90
22364;DHT22;11349;53.412;-1.328;2022-08-21T12:26:35;24.20;99.90
22364;DHT22;11349;53.412;-1.328;2022-08-21T12:29:30;24.20;99.90
22364;DHT22;11349;53.412;-1.328;2022-08-21T12:32:00;24.20;99.90
22364;DHT22;11349;53.412;-1.328;2022-08-21T12:34:46;24.20;99.90
22364;DHT22;11349;53.412;-1.328;2022-08-21T12:37:24;24.20;99.90
22364;DHT22;11349;53.412;-1.328;2022-08-21T12:39:52;24.20;99.90
22364;DHT22;11349;53.412;-1.328;2022-08-21T12:42:34;24.20;99.90
22364;DHT22;11349;53.412;-1.328;2022-08-21T12:45:11;24.20;99.90
22364;DHT22;11349;53.412;-1.328;2022-08-21T12:47:57;24.00;99.90
22364;DHT22;11349;53.412;-1.328;2022-08-21T12:50:48;23.60;99.90
22364;DHT22;11349;53.412;-1.328;2022-08-21T12:53:28;23.70;99.90
22364;DHT22;11349;53.412;-1.328;2022-08-21T12:55:56;23.70;99.90
22364;DHT22;11349;53.412;-1.328;2022-08-21T12:58:27;23.90;99.90
22364;DHT22;11349;53.412;-1.328;2022-08-21T13:01:05;23.80;99.90
22364;DHT22;11349;53.412;-1.328;2022-08-21T13:03:35;23.90;99.90
22364;DHT22;11349;53.412;-1.328;2022-08-21T13:06:04;23.90;99.90
22364;DHT22;11349;53.412;-1.328;2022-08-21T13:08:33;23.80;99.90
22364;DHT22;11349;53.412;-1.328;2022-08-21T13:11:04;23.80;99.90
22364;DHT22;11349;53.412;-1.328;2022-08-21T13:13:30;23.80;99.90
22364;DHT22;11349;53.412;-1.328;2022-08-21T13:15:59;23.80;99.90
22364;DHT22;11349;53.412;-1.328;2022-08-21T13:18:27;23.90;99.90
22364;DHT22;11349;53.412;-1.328;2022-08-21T13:21:13;23.80;99.90
22364;DHT22;11349;53.412;-1.328;2022-08-21T13:23:39;23.70;99.90
22364;DHT22;11349;53.412;-1.328;2022-08-21T13:26:18;23.60;99.90
22364;DHT22;11349;53.412;-1.328;2022-08-21T13:28:45;23.60;99.90
22364;DHT22;11349;53.412;-1.328;2022-08-21T13:31:24;23.70;99.90
22364;DHT22;11349;53.412;-1.328;2022-08-21T13:33:53;23.70;99.90
22364;DHT22;11349;53.412;-1.328;2022-08-21T13:36:46;23.70;99.90
22364;DHT22;11349;53.412;-1.328;2022-08-21T13:39:16;23.80;99.90
22364;DHT22;11349;53.412;-1.328;2022-08-21T13:41:45;23.80;99.90
22364;DHT22;11349;53.412;-1.328;2022-08-21T13:44:24;23.70;99.90
22364;DHT22;11349;53.412;-1.328;2022-08-21T13:46:58;23.70;99.90
22364;DHT22;11349;53.412;-1.328;2022-08-21T13:49:51;23.60;99.90
22364;DHT22;11349;53.412;-1.328;2022-08-21T13:52:26;23.80;99.90
22364;DHT22;11349;53.412;-1.328;2022-08-21T13:55:06;23.90;99.90
22364;DHT22;11349;53.412;-1.328;2022-08-21T13:57:34;24.00;99.90
22364;DHT22;11349;53.412;-1.328;2022-08-21T14:00:17;23.90;99.90
22364;DHT22;11349;53.412;-1.328;2022-08-21T14:02:46;23.80;99.90
22364;DHT22;11349;53.412;-1.328;2022-08-21T14:05:28;23.60;99.90
22364;DHT22;11349;53.412;-1.328;2022-08-21T14:08:15;23.80;99.90
22364;DHT22;11349;53.412;-1.328;2022-08-21T14:10:51;23.80;99.90
22364;DHT22;11349;53.412;-1.328;2022-08-21T14:13:33;23.80;99.90
22364;DHT22;11349;53.412;-1.328;2022-08-21T14:16:01;23.70;99.90
22364;DHT22;11349;53.412;-1.328;2022-08-21T14:18:28;23.80;99.90
22364;DHT22;11349;53.412;-1.328;2022-08-21T14:21:05;23.70;99.90
22364;DHT22;11349;53.412;-1.328;2022-08-21T14:23:31;23.70;99.90
22364;DHT22;11349;53.412;-1.328;2022-08-21T14:26:04;23.90;99.90
22364;DHT22;11349;53.412;-1.328;2022-08-21T14:28:39;23.90;99.90
22364;DHT22;11349;53.412;-1.328;2022-08-21T14:31:18;23.70;99.90
22364;DHT22;11349;53.412;-1.328;2022-08-21T14:33:44;24.00;99.90
22364;DHT22;11349;53.412;-1.328;2022-08-21T14:36:11;24.00;99.90
22364;DHT22;11349;53.412;-1.328;2022-08-21T14:38:38;24.00;99.90
22364;DHT22;11349;53.412;-1.328;2022-08-21T14:41:15;23.90;99.90
22364;DHT22;11349;53.412;-1.328;2022-08-21T14:43:43;23.90;99.90
22364;DHT22;11349;53.412;-1.328;2022-08-21T14:46:09;23.80;99.90
22364;DHT22;11349;53.412;-1.328;2022-08-21T14:48:34;24.00;99.90
22364;DHT22;11349;53.412;-1.328;2022-08-21T14:51:00;23.90;99.90
22364;DHT22;11349;53.412;-1.328;2022-08-21T14:53:26;23.80;99.90
22364;DHT22;11349;53.412;-1.328;2022-08-21T14:55:51;23.70;99.90
22364;DHT22;11349;53.412;-1.328;2022-08-21T14:58:40;23.60;99.90
22364;DHT22;11349;53.412;-1.328;2022-08-21T15:01:08;23.60;99.90
22364;DHT22;11349;53.412;-1.328;2022-08-21T15:03:35;23.50;99.90
22364;DHT22;11349;53.412;-1.328;2022-08-21T15:06:03;23.50;99.90
22364;DHT22;11349;53.412;-1.328;2022-08-21T15:08:29;23.40;99.90
22364;DHT22;11349;53.412;-1.328;2022-08-21T15:10:55;23.40;99.90
22364;DHT22;11349;53.412;-1.328;2022-08-21T15:13:22;23.50;99.90
22364;DHT22;11349;53.412;-1.328;2022-08-21T15:15:49;23.60;99.90
22364;DHT22;11349;53.412;-1.328;2022-08-21T15:18:21;23.40;99.90
22364;DHT22;11349;53.412;-1.328;2022-08-21T15:20:47;23.40;99.90
22364;DHT22;11349;53.412;-1.328;2022-08-21T15:23:13;23.50;99.90
22364;DHT22;11349;53.412;-1.328;2022-08-21T15:25:41;23.60;99.90
22364;DHT22;11349;53.412;-1.328;2022-08-21T15:28:07;23.70;99.90
22364;DHT22;11349;53.412;-1.328;2022-08-21T15:30:34;23.70;99.90
22364;DHT22;11349;53.412;-1.328;2022-08-21T15:33:00;23.70;99.90
22364;DHT22;11349;53.412;-1.328;2022-08-21T15:35:26;23.70;99.90
22364;DHT22;11349;53.412;-1.328;2022-08-21T15:37:52;23.60;99.90
22364;DHT22;11349;53.412;-1.328;2022-08-21T15:40:18;23.60;99.90
22364;DHT22;11349;53.412;-1.328;2022-08-21T15:42:44;23.70;99.90
22364;DHT22;11349;53.412;-1.328;2022-08-21T15:45:13;23.70;99.90
22364;DHT22;11349;53.412;-1.328;2022-08-21T15:47:43;23.60;99.90
22364;DHT22;11349;53.412;-1.328;2022-08-21T15:50:10;23.60;99.90
22364;DHT22;11349;53.412;-1.328;2022-08-21T15:52:36;23.50;99.90
22364;DHT22;11349;53.412;-1.328;2022-08-21T15:55:04;23.60;99.90
22364;DHT22;11349;53.412;-1.328;2022-08-21T15:57:30;23.70;99.90
22364;DHT22;11349;53.412;-1.328;2022-08-21T16:00:04;23.60;99.90
22364;DHT22;11349;53.412;-1.328;2022-08-21T16:02:36;23.60;99.90
22364;DHT22;11349;53.412;-1.328;2022-08-21T16:05:02;23.50;99.90
22364;DHT22;11349;53.412;-1.328;2022-08-21T16:07:28;23.50;99.90
22364;DHT22;11349;53.412;-1.328;2022-08-21T16:09:54;23.70;99.90
22364;DHT22;11349;53.412;-1.328;2022-08-21T16:12:26;23.60;99.90
22364;DHT22;11349;53.412;-1.328;2022-08-21T16:14:53;23.70;99.90
22364;DHT22;11349;53.412;-1.328;2022-08-21T16:17:22;23.50;99.90
22364;DHT22;11349;53.412;-1.328;2022-08-21T16:19:49;23.50;99.90
22364;DHT22;11349;53.412;-1.328;2022-08-21T16:22:14;23.50;99.90
22364;DHT22;11349;53.412;-1.328;2022-08-21T16:24:40;23.50;99.90
22364;DHT22;11349;53.412;-1.328;2022-08-21T16:27:06;23.50;99.90
22364;DHT22;11349;53.412;-1.328;2022-08-21T16:29:34;23.50;99.90
22364;DHT22;11349;53.412;-1.328;2022-08-21T16:32:01;23.60;99.90
22364;DHT22;11349;53.412;-1.328;2022-08-21T16:34:27;23.60;99.90
22364;DHT22;11349;53.412;-1.328;2022-08-21T16:36:54;23.60;99.90
22364;DHT22;11349;53.412;-1.328;2022-08-21T16:39:20;23.60;99.90
22364;DHT22;11349;53.412;-1.328;2022-08-21T16:41:47;23.70;99.90
22364;DHT22;11349;53.412;-1.328;2022-08-21T16:44:15;23.80;99.90
22364;DHT22;11349;53.412;-1.328;2022-08-21T16:46:44;23.80;99.90
22364;DHT22;11349;53.412;-1.328;2022-08-21T16:49:10;23.90;99.90
22364;DHT22;11349;53.412;-1.328;2022-08-21T16:51:36;23.70;99.90
22364;DHT22;11349;53.412;-1.328;2022-08-21T16:54:02;23.70;99.90
22364;DHT22;11349;53.412;-1.328;2022-08-21T16:56:29;23.80;99.90